createdAt,value
2023-07-03T00:00:41.116Z,4.07
2023-07-03T00:03:09.208Z,5.13
2023-07-03T00:05:37.268Z,3.80
2023-07-03T00:08:05.128Z,4.80
2023-07-03T00:10:32.953Z,4.80
2023-07-03T00:13:00.746Z,4.38
2023-07-03T00:15:28.560Z,3.85
2023-07-03T00:17:56.158Z,4.53
2023-07-03T00:20:23.722Z,4.05
2023-07-03T00:22:52.638Z,3.33
2023-07-03T00:25:20.239Z,3.17
2023-07-03T00:27:48.628Z,3.50
2023-07-03T00:30:19.275Z,3.63
2023-07-03T00:32:47.120Z,4.45
2023-07-03T00:35:16.319Z,4.18
2023-07-03T00:37:43.921Z,4.38
2023-07-03T00:40:13.552Z,3.72
2023-07-03T00:42:41.015Z,3.80
2023-07-03T00:45:10.629Z,3.40
2023-07-03T00:47:39.370Z,4.13
2023-07-03T00:50:07.379Z,3.58
2023-07-03T00:52:35.558Z,3.95
2023-07-03T00:55:03.432Z,4.67
2023-07-03T00:57:31.301Z,4.10
2023-07-03T01:00:00.281Z,4.68
2023-07-03T01:02:27.805Z,4.53
2023-07-03T01:04:58.453Z,3.22
2023-07-03T01:07:30.556Z,3.80
2023-07-03T01:10:09.745Z,3.85
2023-07-03T01:12:41.764Z,4.50
2023-07-03T01:15:18.938Z,3.63
2023-07-03T01:17:48.996Z,4.40
2023-07-03T01:20:20.352Z,4.20
2023-07-03T01:23:08.745Z,3.88
2023-07-03T01:25:40.579Z,3.83
2023-07-03T01:28:11.832Z,4.20
2023-07-03T01:30:42.766Z,4.43
2023-07-03T01:33:19.222Z,3.63
2023-07-03T01:35:48.560Z,3.50
2023-07-03T01:38:19.078Z,3.97
2023-07-03T01:40:47.429Z,3.70
2023-07-03T01:43:15.826Z,3.58
2023-07-03T01:45:45.365Z,3.30
2023-07-03T01:48:13.696Z,2.70
2023-07-03T01:50:42.781Z,2.72
2023-07-03T01:53:24.314Z,2.50
2023-07-03T01:56:11.485Z,2.38
2023-07-03T01:58:49.080Z,2.33
2023-07-03T02:01:38.981Z,2.30
2023-07-03T02:04:13.396Z,2.60
2023-07-03T02:06:45.062Z,1.77
2023-07-03T02:09:14.255Z,1.73
2023-07-03T02:11:48.796Z,1.73
2023-07-03T02:14:16.662Z,1.60
2023-07-03T02:16:48.202Z,1.60
2023-07-03T02:19:18.336Z,1.80
2023-07-03T02:21:46.319Z,1.67
2023-07-03T02:24:14.544Z,1.63
2023-07-03T02:26:43.409Z,1.50
2023-07-03T02:29:11.249Z,2.10
2023-07-03T02:31:39.436Z,1.50
2023-07-03T02:34:07.180Z,1.42
2023-07-03T02:36:38.389Z,1.70
2023-07-03T02:39:06.918Z,1.60
2023-07-03T02:41:34.911Z,1.60
2023-07-03T02:44:02.825Z,1.55
2023-07-03T02:46:32.954Z,1.60
2023-07-03T02:49:00.468Z,1.50
2023-07-03T02:51:28.584Z,1.50
2023-07-03T02:54:00.366Z,2.05
2023-07-03T02:56:28.200Z,1.65
2023-07-03T02:58:55.968Z,1.30
2023-07-03T03:01:29.039Z,1.57
2023-07-03T03:03:59.937Z,1.58
2023-07-03T03:06:28.640Z,1.58
2023-07-03T03:08:56.319Z,2.00
2023-07-03T03:11:24.240Z,1.75
2023-07-03T03:13:55.036Z,1.60
2023-07-03T03:16:22.682Z,1.63
2023-07-03T03:18:51.727Z,1.83
2023-07-03T03:21:19.766Z,1.63
2023-07-03T03:23:48.332Z,2.03
2023-07-03T03:26:16.077Z,1.63
2023-07-03T03:28:43.941Z,1.63
2023-07-03T03:31:11.485Z,2.00
2023-07-03T03:33:47.461Z,1.92
2023-07-03T03:36:14.996Z,1.75
2023-07-03T03:38:42.805Z,1.90
2023-07-03T03:41:10.359Z,1.83
2023-07-03T03:43:40.838Z,1.60
2023-07-03T03:46:09.293Z,1.58
2023-07-03T03:48:38.113Z,1.80
2023-07-03T03:51:08.660Z,1.43
2023-07-03T03:53:36.978Z,2.00
2023-07-03T03:56:04.716Z,1.80
2023-07-03T03:58:35.080Z,2.17
2023-07-03T04:01:02.796Z,1.75
2023-07-03T04:03:30.518Z,1.60
2023-07-03T04:05:58.501Z,1.42
2023-07-03T04:08:26.284Z,1.83
2023-07-03T04:10:54.088Z,1.83
2023-07-03T04:13:21.577Z,2.03
2023-07-03T04:16:02.018Z,1.83
2023-07-03T04:18:30.874Z,2.22
2023-07-03T04:20:59.364Z,1.60
2023-07-03T04:23:27.291Z,1.65
2023-07-03T04:25:55.018Z,1.73
2023-07-03T04:28:24.344Z,1.70
2023-07-03T04:30:52.606Z,1.95
2023-07-03T04:33:20.270Z,1.77
2023-07-03T04:35:49.187Z,1.48
2023-07-03T04:38:25.190Z,2.03
2023-07-03T04:40:54.913Z,2.00
2023-07-03T04:43:23.112Z,1.75
2023-07-03T04:45:55.169Z,1.88
2023-07-03T04:48:23.484Z,1.90
2023-07-03T04:50:51.272Z,1.95
2023-07-03T04:53:22.674Z,1.90
2023-07-03T04:55:51.568Z,2.33
2023-07-03T04:58:20.639Z,1.50
2023-07-03T05:00:48.608Z,2.00
2023-07-03T05:03:17.195Z,2.33
2023-07-03T05:05:45.193Z,2.00
2023-07-03T05:08:12.837Z,2.15
2023-07-03T05:10:40.600Z,1.70
2023-07-03T05:13:08.089Z,2.78
2023-07-03T05:15:35.944Z,2.15
2023-07-03T05:18:03.563Z,1.93
2023-07-03T05:20:31.385Z,1.80
2023-07-03T05:22:59.519Z,1.70
2023-07-03T05:25:27.044Z,2.00
2023-07-03T05:27:54.615Z,2.42
2023-07-03T05:30:22.243Z,2.73
2023-07-03T05:32:49.862Z,2.17
2023-07-03T05:35:17.876Z,2.22
2023-07-03T05:37:45.337Z,1.75
2023-07-03T05:40:16.271Z,1.60
2023-07-03T05:42:44.467Z,2.13
2023-07-03T05:45:12.129Z,1.80
2023-07-03T05:47:39.662Z,1.80
2023-07-03T05:50:08.222Z,1.77
2023-07-03T05:52:37.426Z,1.88
2023-07-03T05:55:06.155Z,1.40
2023-07-03T05:57:33.623Z,1.52
2023-07-03T06:00:01.167Z,1.83
2023-07-03T06:02:28.746Z,1.45
2023-07-03T06:04:56.501Z,2.65
2023-07-03T06:07:24.120Z,2.17
2023-07-03T06:09:52.648Z,1.83
2023-07-03T06:12:20.186Z,1.63
2023-07-03T06:14:48.136Z,1.95
2023-07-03T06:17:15.626Z,2.33
2023-07-03T06:19:43.536Z,2.23
2023-07-03T06:22:10.850Z,1.88
2023-07-03T06:24:38.508Z,1.85
2023-07-03T06:27:07.679Z,1.90
2023-07-03T06:29:35.497Z,1.85
2023-07-03T06:32:03.080Z,1.60
2023-07-03T06:34:30.594Z,1.83
2023-07-03T06:36:58.153Z,1.92
2023-07-03T06:39:25.783Z,2.22
2023-07-03T06:41:53.519Z,1.75
2023-07-03T06:44:21.962Z,1.77
2023-07-03T06:46:51.972Z,2.30
2023-07-03T06:49:21.535Z,2.15
2023-07-03T06:51:50.003Z,2.28
2023-07-03T06:54:18.314Z,2.28
2023-07-03T06:56:45.851Z,2.30
2023-07-03T06:59:13.715Z,1.60
2023-07-03T07:01:42.081Z,2.97
2023-07-03T07:04:10.599Z,2.53
2023-07-03T07:06:40.304Z,1.92
2023-07-03T07:09:08.249Z,2.47
2023-07-03T07:11:37.034Z,2.10
2023-07-03T07:14:07.220Z,1.70
2023-07-03T07:16:38.508Z,2.70
2023-07-03T07:19:08.628Z,2.30
2023-07-03T07:21:39.336Z,1.70
2023-07-03T07:24:33.440Z,1.60
2023-07-03T07:27:01.817Z,1.52
2023-07-03T07:29:29.713Z,1.30
2023-07-03T07:32:01.338Z,2.00
2023-07-03T07:34:29.316Z,1.20
2023-07-03T07:36:56.797Z,1.65
2023-07-03T07:39:26.417Z,2.17
2023-07-03T07:41:56.745Z,1.40
2023-07-03T07:44:24.610Z,1.75
2023-07-03T07:46:52.403Z,1.67
2023-07-03T07:49:19.885Z,1.48
2023-07-03T07:51:47.465Z,1.90
2023-07-03T07:54:15.103Z,1.40
2023-07-03T07:56:42.771Z,1.85
2023-07-03T07:59:10.386Z,1.77
2023-07-03T08:01:38.468Z,1.70
2023-07-03T08:04:06.383Z,1.67
2023-07-03T08:06:34.083Z,2.53
2023-07-03T08:09:01.537Z,2.08
2023-07-03T08:11:31.885Z,1.77
2023-07-03T08:13:59.310Z,1.45
2023-07-03T08:16:27.097Z,1.75
2023-07-03T08:18:54.722Z,1.70
2023-07-03T08:21:22.379Z,2.08
2023-07-03T08:23:49.837Z,1.80
2023-07-03T08:26:20.271Z,2.08
2023-07-03T08:28:48.377Z,2.08
2023-07-03T08:31:16.179Z,1.67
2023-07-03T08:33:43.944Z,1.73
2023-07-03T08:38:42.316Z,1.50
2023-07-03T08:41:15.467Z,2.03
2023-07-03T08:43:48.069Z,1.65
2023-07-03T08:46:21.769Z,1.85
2023-07-03T08:48:52.782Z,1.70
2023-07-03T08:51:24.078Z,1.67
2023-07-03T08:53:54.828Z,1.80
2023-07-03T08:56:26.033Z,1.80
2023-07-03T08:58:56.119Z,2.15
2023-07-03T09:01:28.847Z,1.77
2023-07-03T09:04:02.510Z,2.03
2023-07-03T09:06:49.790Z,1.58
2023-07-03T09:09:38.510Z,1.80
2023-07-03T09:12:30.093Z,1.55
2023-07-03T09:15:13.679Z,1.63
2023-07-03T09:17:43.458Z,1.58
2023-07-03T09:20:14.088Z,1.90
2023-07-03T09:22:44.737Z,1.92
2023-07-03T09:25:21.182Z,1.55
2023-07-03T09:27:54.082Z,1.70
2023-07-03T09:30:21.667Z,1.98
2023-07-03T09:32:49.551Z,1.80
2023-07-03T09:35:19.590Z,1.67
2023-07-03T09:37:59.375Z,1.95
2023-07-03T09:40:49.577Z,1.47
2023-07-03T09:43:25.513Z,2.15
2023-07-03T09:46:13.740Z,2.00
2023-07-03T09:48:41.425Z,1.77
2023-07-03T09:51:30.463Z,2.25
2023-07-03T09:54:00.360Z,2.03
2023-07-03T09:56:31.515Z,1.85
2023-07-03T09:59:04.756Z,1.77
2023-07-03T10:06:58.136Z,1.90
2023-07-03T10:12:21.105Z,2.22
2023-07-03T10:14:55.862Z,1.95
2023-07-03T10:17:48.930Z,1.70
2023-07-03T10:20:29.590Z,1.90
2023-07-03T10:22:59.757Z,2.20
2023-07-03T10:25:49.776Z,2.50
2023-07-03T10:28:32.546Z,2.90
2023-07-03T10:31:05.531Z,2.78
2023-07-03T10:33:42.087Z,2.70
2023-07-03T10:36:16.578Z,2.33
2023-07-03T10:39:02.230Z,2.03
2023-07-03T10:41:47.149Z,1.80
2023-07-03T10:44:19.453Z,2.25
2023-07-03T10:47:08.508Z,2.00
2023-07-03T10:49:38.488Z,1.67
2023-07-03T10:52:09.157Z,1.42
2023-07-03T10:54:55.368Z,1.70
2023-07-03T10:57:35.435Z,1.95
2023-07-03T11:00:13.394Z,1.93
2023-07-03T11:03:06.335Z,2.30
2023-07-03T11:05:41.323Z,1.88
2023-07-03T11:08:45.116Z,1.88
2023-07-03T11:11:33.732Z,1.88
2023-07-03T11:14:14.354Z,1.87
2023-07-03T11:16:55.430Z,1.67
2023-07-03T11:24:41.636Z,1.80
2023-07-03T11:30:02.272Z,1.55
2023-07-03T11:32:34.924Z,1.65
2023-07-03T11:41:06.213Z,1.70
2023-07-03T11:43:35.390Z,1.75
2023-07-03T11:46:07.885Z,2.08
2023-07-03T11:48:47.870Z,1.77
2023-07-03T11:51:29.756Z,2.13
2023-07-03T11:53:58.892Z,1.77
2023-07-03T11:56:32.718Z,2.10
2023-07-03T11:59:34.736Z,2.53
2023-07-03T12:02:18.125Z,1.60
2023-07-03T12:04:50.182Z,1.65
2023-07-03T12:07:20.906Z,2.07
2023-07-03T12:09:49.924Z,1.88
2023-07-03T12:12:25.795Z,1.58
2023-07-03T12:15:03.132Z,1.55
2023-07-03T12:17:33.195Z,1.77
2023-07-03T12:20:21.623Z,1.43
2023-07-03T12:22:53.244Z,1.75
2023-07-03T12:25:26.653Z,1.63
2023-07-03T12:27:55.924Z,2.00
2023-07-03T12:30:31.669Z,1.60
2023-07-03T12:33:00.707Z,1.83
2023-07-03T12:35:37.197Z,1.52
2023-07-03T12:38:10.014Z,2.17
2023-07-03T12:40:45.552Z,1.80
2023-07-03T12:43:19.081Z,1.70
2023-07-03T12:45:54.860Z,1.83
2023-07-03T12:48:24.236Z,1.50
2023-07-03T12:50:57.116Z,1.70
2023-07-03T12:53:30.977Z,1.65
2023-07-03T12:56:04.322Z,1.65
2023-07-03T12:58:32.453Z,1.70
2023-07-03T13:01:03.154Z,1.55
2023-07-03T13:03:31.492Z,1.83
2023-07-03T13:05:59.211Z,1.77
2023-07-03T13:08:26.856Z,2.33
2023-07-03T13:11:03.498Z,1.67
2023-07-03T13:13:31.086Z,1.60
2023-07-03T13:15:58.945Z,1.83
2023-07-03T13:18:26.832Z,1.67
2023-07-03T13:20:58.765Z,2.00
2023-07-03T13:23:36.972Z,1.83
2023-07-03T13:26:12.540Z,1.52
2023-07-03T13:28:52.560Z,1.80
2023-07-03T13:31:22.367Z,2.33
2023-07-03T13:34:08.167Z,2.05
2023-07-03T13:36:51.269Z,1.90
2023-07-03T13:39:18.850Z,2.75
2023-07-03T13:41:48.147Z,2.17
2023-07-03T13:44:18.693Z,1.73
2023-07-03T13:46:49.207Z,1.95
2023-07-03T13:49:17.913Z,1.50
2023-07-03T13:51:47.368Z,1.65
2023-07-03T13:54:16.517Z,2.03
2023-07-03T13:56:44.930Z,1.55
2023-07-03T13:59:13.257Z,1.92
2023-07-03T14:01:42.495Z,1.70
2023-07-03T14:04:10.796Z,2.17
2023-07-03T14:06:38.461Z,1.63
2023-07-03T14:09:06.505Z,1.90
2023-07-03T14:11:34.255Z,2.80
2023-07-03T14:14:03.505Z,1.67
2023-07-03T14:16:31.533Z,1.80
2023-07-03T14:18:59.468Z,1.52
2023-07-03T14:21:27.046Z,1.98
2023-07-03T14:23:54.776Z,1.85
2023-07-03T14:26:23.827Z,1.50
2023-07-03T14:28:51.456Z,1.50
2023-07-03T14:31:19.405Z,2.75
2023-07-03T14:33:47.283Z,1.88
2023-07-03T14:36:14.908Z,1.50
2023-07-03T14:38:42.562Z,1.73
2023-07-03T14:41:10.641Z,1.77
2023-07-03T14:43:38.468Z,1.80
2023-07-03T14:46:07.884Z,2.10
2023-07-03T14:48:35.829Z,2.03
2023-07-03T14:51:03.810Z,1.90
2023-07-03T14:53:31.655Z,2.05
2023-07-03T14:56:01.947Z,2.15
2023-07-03T14:58:31.566Z,1.80
2023-07-03T15:01:03.677Z,1.88
2023-07-03T15:03:32.150Z,1.63
2023-07-03T15:06:02.009Z,2.05
2023-07-03T15:08:29.680Z,2.40
2023-07-03T15:10:57.499Z,2.15
2023-07-03T15:13:25.177Z,1.80
2023-07-03T15:15:53.374Z,1.80
2023-07-03T15:18:22.611Z,1.30
2023-07-03T15:20:50.138Z,1.88
2023-07-03T15:23:17.897Z,2.13
2023-07-03T15:25:46.462Z,2.30
2023-07-03T15:28:14.562Z,1.90
2023-07-03T15:30:42.090Z,2.10
2023-07-03T15:33:09.826Z,2.25
2023-07-03T15:35:37.604Z,2.35
2023-07-03T15:38:05.109Z,3.17
2023-07-03T15:40:32.923Z,2.30
2023-07-03T15:43:00.379Z,2.13
2023-07-03T15:45:28.142Z,2.38
2023-07-03T15:47:55.678Z,2.75
2023-07-03T15:50:23.312Z,3.20
2023-07-03T15:52:55.693Z,2.60
2023-07-03T15:55:25.803Z,2.45
2023-07-03T15:57:53.332Z,2.60
2023-07-03T16:00:21.227Z,3.03
2023-07-03T16:02:48.874Z,2.38
2023-07-03T16:05:16.955Z,1.93
2023-07-03T16:07:44.653Z,2.33
2023-07-03T16:10:12.709Z,2.35
2023-07-03T16:12:40.239Z,2.25
2023-07-03T16:15:08.350Z,2.35
2023-07-03T16:17:36.730Z,2.27
2023-07-03T16:20:10.957Z,1.80
2023-07-03T16:22:39.059Z,1.98
2023-07-03T16:25:07.567Z,2.40
2023-07-03T16:27:35.397Z,2.42
2023-07-03T16:30:03.426Z,1.70
2023-07-03T16:32:31.446Z,2.15
2023-07-03T16:34:58.987Z,1.75
2023-07-03T16:37:26.670Z,1.88
2023-07-03T16:39:54.129Z,2.35
2023-07-03T16:42:22.102Z,2.13
2023-07-03T16:44:49.560Z,2.30
2023-07-03T16:47:17.021Z,2.08
2023-07-03T16:49:44.855Z,2.38
2023-07-03T16:52:12.349Z,2.40
2023-07-03T16:54:40.122Z,3.07
2023-07-03T16:57:07.683Z,2.10
2023-07-03T16:59:35.289Z,2.63
2023-07-03T17:02:02.794Z,2.90
2023-07-03T17:04:31.653Z,2.38
2023-07-03T17:06:59.151Z,2.50
2023-07-03T17:09:26.699Z,2.15
2023-07-03T17:11:54.156Z,2.05
2023-07-03T17:14:22.189Z,2.40
2023-07-03T17:16:49.858Z,2.67
2023-07-03T17:19:17.624Z,1.97
2023-07-03T17:21:45.512Z,2.10
2023-07-03T17:24:13.582Z,2.63
2023-07-03T17:26:41.674Z,2.67
2023-07-03T17:29:09.301Z,2.42
2023-07-03T17:31:36.745Z,2.13
2023-07-03T17:34:05.117Z,2.78
2023-07-03T17:36:32.923Z,2.63
2023-07-03T17:39:00.504Z,2.67
2023-07-03T17:41:28.067Z,2.60
2023-07-03T17:43:56.410Z,2.67
2023-07-03T17:46:23.943Z,2.70
2023-07-03T17:48:51.920Z,2.22
2023-07-03T17:51:19.700Z,2.63
2023-07-03T17:53:48.497Z,2.78
2023-07-03T17:56:16.125Z,2.00
2023-07-03T17:58:44.620Z,2.50
2023-07-03T18:01:12.817Z,2.75
2023-07-03T18:03:40.744Z,2.50
2023-07-03T18:06:09.026Z,2.50
2023-07-03T18:08:36.893Z,2.30
2023-07-03T18:11:04.612Z,2.88
2023-07-03T18:13:32.205Z,3.03
2023-07-03T18:16:00.243Z,2.72
2023-07-03T18:18:28.000Z,3.00
2023-07-03T18:20:55.677Z,2.60
2023-07-03T18:23:23.316Z,2.20
2023-07-03T18:25:51.358Z,3.53
2023-07-03T18:28:19.289Z,3.00
2023-07-03T18:30:46.833Z,3.33
2023-07-03T18:33:14.322Z,2.60
2023-07-03T18:35:41.890Z,2.33
2023-07-03T18:38:09.426Z,2.30
2023-07-03T18:40:37.252Z,2.03
2023-07-03T18:43:04.674Z,3.30
2023-07-03T18:45:32.087Z,3.23
2023-07-03T18:48:00.054Z,2.58
2023-07-03T18:50:27.554Z,2.10
2023-07-03T18:52:55.259Z,2.50
2023-07-03T18:55:22.656Z,2.03
2023-07-03T18:57:50.607Z,1.87
2023-07-03T19:00:18.277Z,1.85
2023-07-03T19:02:49.763Z,1.80
2023-07-03T19:05:17.605Z,1.98
2023-07-03T19:07:45.866Z,2.25
2023-07-03T19:12:43.920Z,2.83
2023-07-03T19:15:11.479Z,2.63
2023-07-03T19:17:38.937Z,1.92
2023-07-03T19:20:11.772Z,2.83
2023-07-03T19:22:39.893Z,2.87
2023-07-03T19:25:08.873Z,3.17
2023-07-03T19:27:36.352Z,3.13
2023-07-03T19:30:04.098Z,3.38
2023-07-03T19:32:31.713Z,3.63
2023-07-03T19:34:59.323Z,3.03
2023-07-03T19:37:26.787Z,2.58
2023-07-03T19:39:54.494Z,3.33
2023-07-03T19:42:22.190Z,2.63
2023-07-03T19:44:49.830Z,3.13
2023-07-03T19:47:17.883Z,2.97
2023-07-03T19:49:45.583Z,3.47
2023-07-03T19:52:13.236Z,3.35
2023-07-03T19:54:40.854Z,3.30
2023-07-03T19:57:08.356Z,3.30
2023-07-03T19:59:36.860Z,3.27
2023-07-03T20:02:07.576Z,2.90
2023-07-03T20:04:37.232Z,2.05
2023-07-03T20:07:05.201Z,2.90
2023-07-03T20:09:32.889Z,2.63
2023-07-03T20:12:00.286Z,2.57
2023-07-03T20:14:27.922Z,2.25
2023-07-03T20:16:55.481Z,2.13
2023-07-03T20:19:22.830Z,2.42
2023-07-03T20:21:51.534Z,2.63
2023-07-03T20:24:19.301Z,2.70
2023-07-03T20:26:48.800Z,2.13
2023-07-03T20:29:16.250Z,2.72
2023-07-03T20:31:45.503Z,2.60
2023-07-03T20:34:14.238Z,2.25
2023-07-03T20:36:43.734Z,2.07
2023-07-03T20:39:11.260Z,1.95
2023-07-03T20:41:39.189Z,2.08
2023-07-03T20:44:07.876Z,2.50
2023-07-03T20:46:37.054Z,1.60
2023-07-03T20:49:04.945Z,1.90
2023-07-03T20:51:34.983Z,1.60
2023-07-03T20:54:12.356Z,1.58
2023-07-03T20:56:40.813Z,2.22
2023-07-03T20:59:12.955Z,1.52
2023-07-03T21:01:44.684Z,2.30
2023-07-03T21:04:12.023Z,2.40
2023-07-03T21:06:41.982Z,1.90
2023-07-03T21:09:09.913Z,3.13
2023-07-03T21:11:40.459Z,2.75
2023-07-03T21:14:08.122Z,3.10
2023-07-03T21:16:36.577Z,2.63
2023-07-03T21:19:07.155Z,2.63
2023-07-03T21:21:35.345Z,3.22
2023-07-03T21:24:05.892Z,2.33
2023-07-03T21:26:34.040Z,2.50
2023-07-03T21:29:01.769Z,2.70
2023-07-03T21:31:32.407Z,2.78
2023-07-03T21:34:00.310Z,2.60
2023-07-03T21:36:29.922Z,3.22
2023-07-03T21:38:59.533Z,2.73
2023-07-03T21:41:30.556Z,2.53
2023-07-03T21:44:02.152Z,2.47
2023-07-03T21:46:32.627Z,2.67
2023-07-03T21:49:00.350Z,2.33
2023-07-03T21:51:30.557Z,2.13
2023-07-03T21:53:59.233Z,2.58
2023-07-03T21:56:29.289Z,2.45
2023-07-03T21:58:58.981Z,3.63
2023-07-03T22:01:38.805Z,2.47
2023-07-03T22:04:08.132Z,2.67
2023-07-03T22:06:35.955Z,3.55
2023-07-03T22:09:04.247Z,2.40
2023-07-03T22:11:31.796Z,2.25
2023-07-03T22:14:00.355Z,2.30
2023-07-03T22:16:28.049Z,3.00
2023-07-03T22:18:55.855Z,2.38
2023-07-03T22:21:23.628Z,2.30
2023-07-03T22:23:52.288Z,2.40
2023-07-03T22:26:20.696Z,3.00
2023-07-03T22:28:48.628Z,2.97
2023-07-03T22:31:16.555Z,2.33
2023-07-03T22:33:44.549Z,2.75
2023-07-03T22:36:13.330Z,2.83
2023-07-03T22:38:40.853Z,2.38
2023-07-03T22:41:11.607Z,1.63
2023-07-03T22:43:39.459Z,1.98
2023-07-03T22:46:09.297Z,2.55
2023-07-03T22:48:40.693Z,2.30
2023-07-03T22:51:11.267Z,3.30
2023-07-03T22:53:39.571Z,2.57
2023-07-03T22:56:08.043Z,2.03
2023-07-03T22:58:35.886Z,2.50
2023-07-03T23:01:11.504Z,2.35
2023-07-03T23:03:40.353Z,2.40
2023-07-03T23:06:08.913Z,2.07
2023-07-03T23:08:37.743Z,2.40
2023-07-03T23:11:05.924Z,2.63
2023-07-03T23:13:33.837Z,1.88
2023-07-03T23:16:06.174Z,2.30
2023-07-03T23:18:36.136Z,2.10
2023-07-03T23:21:10.089Z,1.60
2023-07-03T23:23:37.971Z,2.03
2023-07-03T23:26:07.686Z,1.65
2023-07-03T23:28:36.598Z,2.00
2023-07-03T23:31:15.777Z,1.70
2023-07-03T23:33:49.164Z,2.17
2023-07-03T23:36:20.993Z,1.90
2023-07-03T23:38:48.556Z,1.48
2023-07-03T23:41:17.066Z,2.38
2023-07-03T23:43:45.001Z,3.03
2023-07-03T23:46:12.955Z,1.48
2023-07-03T23:48:41.460Z,2.05
2023-07-03T23:51:11.199Z,1.63
2023-07-03T23:53:41.506Z,1.85
2023-07-03T23:56:16.687Z,1.53
2023-07-03T23:58:45.766Z,1.40
